Time;durP1;ratioP1;P1;durP2;ratioP2;P2;SDS_P1;SDS_P2;PMS_P1;PMS_P2;Temp;Humidity;BMP_temperature;BMP_pressure;BME280_temperature;BME280_humidity;BME280_pressure;Samples;Min_cycle;Max_cycle;Signal;HPM_P1;HPM_P2
2022/04/01 04:00:15;;;;;;;1.65;1.55;;;2.90;99.90;;;;;;5924827;23;21611;31
2022/04/01 04:02:43;;;;;;;1.88;1.30;;;3.00;99.90;;;;;;4893448;29;20214;-69
2022/04/01 04:05:11;;;;;;;2.08;1.95;;;2.90;99.90;;;;;;4907450;29;20757;-69
2022/04/01 04:07:39;;;;;;;2.28;1.92;;;2.90;99.90;;;;;;4907925;29;20202;-70
2022/04/01 04:10:07;;;;;;;2.22;1.23;;;2.90;99.90;;;;;;4903758;29;20282;-69
2022/04/01 04:12:35;;;;;;;1.85;1.60;;;2.90;99.90;;;;;;4888873;29;20226;-69
2022/04/01 04:15:03;;;;;;;1.98;1.85;;;2.90;99.90;;;;;;4908493;29;20571;-69
2022/04/01 04:17:44;;;;;;;1.48;1.40;;;2.90;99.90;;;;;;4896380;29;20215;-69
2022/04/01 04:20:14;;;;;;;2.40;2.30;;;2.90;99.90;;;;;;4904297;29;20230;-70
2022/04/01 04:22:51;;;;;;;2.10;2.00;;;2.90;99.90;;;;;;4895857;29;20610;-69
2022/04/01 04:25:22;;;;;;;2.35;2.10;;;2.90;99.90;;;;;;4898059;29;20717;-70
2022/04/01 04:27:56;;;;;;;1.60;1.60;;;2.90;99.90;;;;;;4908023;29;20221;-70
2022/04/01 04:30:29;;;;;;;1.70;1.60;;;2.90;99.90;;;;;;4897031;29;20751;-69
2022/04/01 04:33:02;;;;;;;1.83;1.73;;;2.90;99.90;;;;;;4901383;29;20215;-70
2022/04/01 04:35:30;;;;;;;2.00;1.88;;;2.90;99.90;;;;;;4905413;29;20203;-68
2022/04/01 04:37:58;;;;;;;2.28;1.77;;;2.90;99.90;;;;;;4894914;29;20238;-68
2022/04/01 04:40:25;;;;;;;1.90;1.80;;;2.90;99.90;;;;;;4903585;29;20672;-69
2022/04/01 04:42:53;;;;;;;5.50;1.58;;;2.90;99.90;;;;;;4909224;29;20298;-69
2022/04/01 04:45:21;;;;;;;1.95;1.85;;;2.90;99.90;;;;;;4901903;29;20211;-69
2022/04/01 04:47:49;;;;;;;1.88;1.75;;;2.90;99.90;;;;;;4893957;29;20631;-69
2022/04/01 04:50:18;;;;;;;2.30;2.20;;;2.90;99.90;;;;;;4918934;23;20290;-68
2022/04/01 04:52:49;;;;;;;2.42;2.28;;;2.80;99.90;;;;;;4895806;29;20564;-70
2022/04/01 04:55:17;;;;;;;2.55;2.17;;;2.90;99.90;;;;;;4904419;29;20223;-69
2022/04/01 04:57:45;;;;;;;2.97;2.88;;;2.90;99.90;;;;;;4909112;29;20207;-68
2022/04/01 05:00:13;;;;;;;1.98;1.88;;;2.90;99.90;;;;;;4911932;29;20234;-70
2022/04/01 05:03:10;;;;;;;2.63;1.65;;;2.90;99.90;;;;;;4895609;29;20211;-69
2022/04/01 05:05:42;;;;;;;1.80;1.70;;;2.90;99.90;;;;;;4892958;29;20238;-67
2022/04/01 05:08:14;;;;;;;2.25;1.98;;;2.90;99.90;;;;;;4903769;29;20199;-66
2022/04/01 05:10:48;;;;;;;2.60;2.42;;;2.90;99.90;;;;;;4887412;29;20223;-67
2022/04/01 05:13:21;;;;;;;3.63;3.33;;;2.90;99.90;;;;;;4902608;29;20207;-67
2022/04/01 05:15:53;;;;;;;3.58;3.33;;;2.90;99.90;;;;;;4904946;29;20735;-68
2022/04/01 05:18:26;;;;;;;2.35;2.25;;;2.90;99.90;;;;;;4904297;29;20547;-69
2022/04/01 05:20:56;;;;;;;3.22;2.20;;;2.90;99.90;;;;;;4891924;29;20733;-68
2022/04/01 05:23:34;;;;;;;2.05;1.95;;;2.90;99.90;;;;;;4903013;29;20672;-68
2022/04/01 05:26:11;;;;;;;2.22;2.00;;;2.90;99.90;;;;;;4899851;29;20208;-67
2022/04/01 05:28:41;;;;;;;2.25;2.05;;;2.90;99.90;;;;;;4906358;29;20208;-68
2022/04/01 05:31:18;;;;;;;1.92;1.90;;;2.90;99.90;;;;;;4891052;29;20228;-71
2022/04/01 05:33:52;;;;;;;2.50;2.30;;;2.90;99.90;;;;;;4899119;29;20296;-67
2022/04/01 05:36:22;;;;;;;2.60;2.50;;;2.90;99.90;;;;;;4902537;29;20592;-68
2022/04/01 05:38:49;;;;;;;3.90;2.75;;;3.00;99.90;;;;;;4906508;29;20285;-68
2022/04/01 05:41:19;;;;;;;2.63;2.42;;;2.90;99.90;;;;;;4893245;29;20307;-69
2022/04/01 05:43:47;;;;;;;2.88;2.10;;;2.90;99.90;;;;;;4903100;29;20648;-67
2022/04/01 05:46:14;;;;;;;1.27;1.15;;;2.90;99.90;;;;;;4890869;29;20239;-67
2022/04/01 05:48:42;;;;;;;2.25;2.15;;;2.90;99.90;;;;;;4906830;29;20270;-67
2022/04/01 05:51:14;;;;;;;3.90;2.55;;;2.90;99.90;;;;;;4882663;29;20231;-68
2022/04/01 05:53:45;;;;;;;2.80;2.58;;;2.90;99.90;;;;;;4883450;29;20327;-69
2022/04/01 05:56:13;;;;;;;1.80;1.80;;;3.00;99.90;;;;;;4905522;29;20263;-68
2022/04/01 05:58:40;;;;;;;1.65;1.65;;;3.00;99.90;;;;;;4896339;29;20301;-67
2022/04/01 06:01:13;;;;;;;2.35;2.15;;;3.00;99.90;;;;;;4902752;29;20227;-67
2022/04/01 06:04:19;;;;;;;1.90;1.80;;;3.00;99.90;;;;;;4895855;29;20232;-67
2022/04/01 06:06:48;;;;;;;1.77;1.67;;;3.00;99.90;;;;;;4866394;29;20255;-68
2022/04/01 06:09:31;;;;;;;1.40;1.40;;;3.00;99.90;;;;;;4887550;29;20271;-68
2022/04/01 06:12:02;;;;;;;3.35;1.88;;;3.10;99.90;;;;;;4896692;29;20199;-69
2022/04/01 06:14:36;;;;;;;3.80;1.65;;;3.10;99.90;;;;;;4892188;29;20211;-69
2022/04/01 06:17:08;;;;;;;1.85;1.75;;;3.10;99.90;;;;;;4903575;29;20248;-68
2022/04/01 06:19:41;;;;;;;2.80;2.60;;;3.10;99.90;;;;;;4876502;29;20236;-69
2022/04/01 06:22:13;;;;;;;0.98;0.98;;;3.10;99.90;;;;;;4882069;29;20231;-67
2022/04/01 06:24:46;;;;;;;2.40;2.30;;;3.10;99.90;;;;;;4888579;29;20206;-68
2022/04/01 06:27:19;;;;;;;1.65;1.63;;;3.20;99.90;;;;;;4904191;29;20212;-66
2022/04/01 06:29:54;;;;;;;2.22;2.13;;;3.20;99.90;;;;;;4898582;29;20250;-69
2022/04/01 06:32:30;;;;;;;2.58;2.20;;;3.20;99.90;;;;;;4905425;29;20206;-68
2022/04/01 06:35:04;;;;;;;1.67;1.67;;;3.20;99.90;;;;;;4897011;29;20206;-67
2022/04/01 06:37:35;;;;;;;1.60;1.52;;;3.30;99.90;;;;;;4889192;29;20665;-69
2022/04/01 06:40:06;;;;;;;1.80;1.80;;;3.30;99.90;;;;;;4900393;29;20237;-69
2022/04/01 06:42:37;;;;;;;1.52;1.42;;;3.30;99.90;;;;;;4903181;29;20226;-69
2022/04/01 06:45:04;;;;;;;1.83;1.23;;;3.30;99.90;;;;;;4894983;29;20207;-69
2022/04/01 06:47:30;;;;;;;2.20;1.95;;;3.40;99.90;;;;;;4897144;29;20257;-70
2022/04/01 06:49:57;;;;;;;2.08;2.00;;;3.40;99.90;;;;;;4887015;29;20294;-69
2022/04/01 06:52:25;;;;;;;2.15;2.05;;;3.50;99.90;;;;;;4891191;29;20236;-68
2022/04/01 06:54:52;;;;;;;1.70;1.58;;;3.50;99.90;;;;;;4907805;29;20259;-67
2022/04/01 06:57:21;;;;;;;1.85;1.63;;;3.60;99.90;;;;;;4892199;29;20756;-69
2022/04/01 06:59:47;;;;;;;1.17;1.17;;;3.50;99.90;;;;;;4892076;29;20292;-69
2022/04/01 07:02:14;;;;;;;2.80;1.67;;;3.50;99.90;;;;;;4886979;29;20244;-67
2022/04/01 07:04:41;;;;;;;3.03;2.38;;;3.50;99.90;;;;;;4890792;29;20610;-67
2022/04/01 07:07:08;;;;;;;1.70;1.42;;;3.60;99.90;;;;;;4897832;29;20680;-70
2022/04/01 07:09:36;;;;;;;6.13;1.88;;;3.60;99.90;;;;;;4901375;29;20258;-67
2022/04/01 07:12:04;;;;;;;1.17;1.17;;;3.70;99.90;;;;;;4902413;29;20203;-67
2022/04/01 07:14:32;;;;;;;2.03;1.92;;;3.80;99.90;;;;;;4904222;29;20260;-66
2022/04/01 07:16:59;;;;;;;1.63;1.52;;;3.70;99.90;;;;;;4885099;29;20208;-68
2022/04/01 07:19:26;;;;;;;1.73;1.67;;;3.70;99.90;;;;;;4890801;29;20326;-68
2022/04/01 07:21:53;;;;;;;3.13;1.67;;;3.80;99.90;;;;;;4883311;29;20599;-68
2022/04/01 07:24:20;;;;;;;5.00;2.90;;;3.80;99.90;;;;;;4890398;29;20236;-68
2022/04/01 07:26:47;;;;;;;3.45;2.10;;;3.90;99.90;;;;;;4889414;29;20207;-68
2022/04/01 07:29:14;;;;;;;1.65;1.65;;;4.00;99.90;;;;;;4893552;29;20600;-67
2022/04/01 07:34:32;;;;;;;2.15;1.88;;;4.00;99.90;;;;;;4892269;29;20646;-68
2022/04/01 07:36:59;;;;;;;1.67;1.58;;;4.10;99.90;;;;;;4891821;29;20310;-68
2022/04/01 07:39:25;;;;;;;2.35;2.25;;;4.20;99.90;;;;;;4892059;29;20748;-67
2022/04/01 07:41:52;;;;;;;2.08;1.98;;;4.20;99.90;;;;;;4892693;29;20566;-67
2022/04/01 07:44:19;;;;;;;2.08;1.98;;;4.30;99.90;;;;;;4898867;29;20211;-68
2022/04/01 07:46:47;;;;;;;2.42;1.63;;;4.30;99.90;;;;;;4912049;29;20211;-67
2022/04/01 07:49:13;;;;;;;1.60;1.50;;;4.30;99.90;;;;;;4902076;29;20241;-68
2022/04/01 07:51:40;;;;;;;1.20;1.20;;;4.30;99.90;;;;;;4906379;29;20207;-68
2022/04/01 07:54:07;;;;;;;1.73;1.63;;;4.40;99.90;;;;;;4908388;29;20214;-69
2022/04/01 07:56:35;;;;;;;1.88;1.77;;;4.40;99.90;;;;;;4882542;29;20359;-68
2022/04/01 07:59:01;;;;;;;3.95;1.80;;;4.50;99.90;;;;;;4894348;29;20219;-68
2022/04/01 08:01:28;;;;;;;2.28;2.03;;;4.50;99.90;;;;;;4889321;29;20256;-69
2022/04/01 08:03:56;;;;;;;2.38;2.38;;;4.60;99.90;;;;;;4895587;29;20208;-65
2022/04/01 08:06:22;;;;;;;1.33;1.33;;;4.60;99.90;;;;;;4894559;29;20216;-68
2022/04/01 08:08:49;;;;;;;1.85;1.73;;;4.60;99.90;;;;;;4891353;29;20263;-68
2022/04/01 08:11:16;;;;;;;1.23;1.23;;;4.60;99.90;;;;;;4905321;29;20214;-68
2022/04/01 08:13:42;;;;;;;2.38;2.25;;;4.60;99.90;;;;;;4889190;29;20272;-68
2022/04/01 08:16:11;;;;;;;1.98;1.80;;;4.60;99.90;;;;;;4892967;29;20616;-68
2022/04/01 08:18:38;;;;;;;2.00;1.70;;;4.70;99.90;;;;;;4887542;29;20207;-69
2022/04/01 08:21:06;;;;;;;1.17;1.17;;;4.70;99.90;;;;;;4894169;29;20223;-69
2022/04/01 08:23:35;;;;;;;2.88;1.92;;;4.90;99.90;;;;;;4894141;29;20242;-68
2022/04/01 08:26:01;;;;;;;2.30;1.80;;;4.80;99.90;;;;;;4897926;29;20677;-69
2022/04/01 08:28:28;;;;;;;1.42;1.42;;;4.70;99.90;;;;;;4884630;29;20211;-71
2022/04/01 08:30:55;;;;;;;1.40;1.30;;;4.80;99.90;;;;;;4896456;29;20636;-67
2022/04/01 08:33:21;;;;;;;2.78;1.52;;;4.90;99.90;;;;;;4889530;29;20219;-66
2022/04/01 08:35:49;;;;;;;1.35;1.35;;;4.90;99.90;;;;;;4896182;29;20211;-68
2022/04/01 08:38:17;;;;;;;1.30;1.30;;;5.00;99.90;;;;;;4895698;29;20251;-68
2022/04/01 08:40:44;;;;;;;1.52;1.42;;;5.10;99.90;;;;;;4897897;29;20223;-70
2022/04/01 08:43:11;;;;;;;1.33;1.23;;;5.10;99.90;;;;;;4898942;29;20593;-67
2022/04/01 08:45:38;;;;;;;1.80;1.70;;;5.10;99.90;;;;;;4895637;29;20551;-68
2022/04/01 08:48:09;;;;;;;1.65;1.48;;;5.20;99.90;;;;;;4896038;29;20230;-69
2022/04/01 08:50:35;;;;;;;1.33;1.10;;;5.30;99.90;;;;;;4895148;29;20257;-68
2022/04/01 08:53:02;;;;;;;1.70;1.60;;;5.30;99.90;;;;;;4892367;29;20219;-68
2022/04/01 08:55:30;;;;;;;1.08;1.08;;;5.40;99.90;;;;;;4893227;29;20216;-68
2022/04/01 08:57:57;;;;;;;1.92;1.20;;;5.30;99.90;;;;;;4887009;29;20235;-67
2022/04/01 09:00:37;;;;;;;1.52;1.42;;;5.50;99.90;;;;;;4890874;29;20239;-68
2022/04/01 09:03:06;;;;;;;1.17;1.17;;;5.60;99.90;;;;;;4887637;29;20324;-67
2022/04/01 09:05:33;;;;;;;1.15;1.15;;;5.60;99.90;;;;;;4899074;29;20223;-68
2022/04/01 09:08:01;;;;;;;1.23;1.23;;;5.70;99.90;;;;;;4888423;29;20279;-68
2022/04/01 09:10:30;;;;;;;2.78;1.52;;;5.70;99.90;;;;;;4893409;29;20223;-67
2022/04/01 09:12:57;;;;;;;2.58;1.27;;;5.70;99.90;;;;;;4893341;29;20266;-67
2022/04/01 09:15:38;;;;;;;1.45;1.35;;;5.70;99.90;;;;;;4898017;29;20215;-67
2022/04/01 09:18:05;;;;;;;1.52;1.42;;;5.80;99.90;;;;;;4885361;29;20219;-67
2022/04/01 09:20:43;;;;;;;1.80;1.70;;;5.80;99.90;;;;;;4890565;29;20235;-68
2022/04/01 09:23:09;;;;;;;2.20;2.10;;;6.10;99.90;;;;;;4886186;29;20327;-67
2022/04/01 09:25:39;;;;;;;1.75;1.65;;;6.10;99.90;;;;;;4893720;29;20219;-68
2022/04/01 09:28:06;;;;;;;1.58;1.50;;;6.20;99.90;;;;;;4894085;29;20254;-68
2022/04/01 09:30:33;;;;;;;1.50;1.50;;;6.30;99.90;;;;;;4913661;29;20232;-68
2022/04/01 09:33:01;;;;;;;1.50;1.15;;;6.30;99.80;;;;;;4908031;29;20302;-69
2022/04/01 09:35:30;;;;;;;1.00;1.00;;;6.10;98.40;;;;;;4899533;29;20207;-66
2022/04/01 09:37:59;;;;;;;1.77;1.67;;;6.20;98.10;;;;;;4892695;29;20215;-68
2022/04/01 09:40:30;;;;;;;2.47;1.75;;;6.30;98.20;;;;;;4889919;29;20855;-68
2022/04/01 09:42:59;;;;;;;1.90;1.55;;;6.40;98.50;;;;;;4893058;29;20227;-68
2022/04/01 09:45:27;;;;;;;1.23;1.23;;;6.40;98.10;;;;;;4913534;29;20250;-69
2022/04/01 09:47:59;;;;;;;1.65;1.55;;;6.50;98.60;;;;;;4891361;29;20208;-68
2022/04/01 09:50:29;;;;;;;2.88;1.77;;;6.50;98.50;;;;;;4901785;29;20260;-69
2022/04/01 09:53:06;;;;;;;2.10;2.10;;;6.40;97.90;;;;;;4897044;29;20710;-67
2022/04/01 09:55:36;;;;;;;2.25;2.05;;;6.40;98.00;;;;;;4899666;29;20341;-67
2022/04/01 09:58:05;;;;;;;3.05;1.70;;;6.40;98.40;;;;;;4900037;29;20634;-66
2022/04/01 10:00:32;;;;;;;2.10;1.88;;;6.40;99.10;;;;;;4896919;29;20242;-67
2022/04/01 10:02:59;;;;;;;1.63;1.52;;;6.50;99.70;;;;;;4891421;29;20299;-66
2022/04/01 10:05:26;;;;;;;1.83;1.73;;;6.50;99.70;;;;;;4897981;29;20729;-67
2022/04/01 10:07:54;;;;;;;3.42;1.80;;;6.60;99.70;;;;;;4903946;29;20325;-66
2022/04/01 10:10:21;;;;;;;2.15;2.05;;;6.40;98.90;;;;;;4883244;29;20297;-67
2022/04/01 10:12:49;;;;;;;2.08;1.70;;;6.50;99.40;;;;;;4899380;29;20266;-68
2022/04/01 10:15:18;;;;;;;1.58;1.58;;;6.50;99.90;;;;;;4894209;29;20208;-67
2022/04/01 10:17:46;;;;;;;1.60;1.60;;;6.60;99.90;;;;;;4889899;29;20311;-67
2022/04/01 10:20:14;;;;;;;1.90;1.70;;;6.60;99.80;;;;;;4894314;29;20230;-68
2022/04/01 10:22:42;;;;;;;1.52;1.42;;;6.50;99.50;;;;;;4909147;29;20290;-68
2022/04/01 10:25:16;;;;;;;1.70;1.70;;;6.60;99.90;;;;;;4897674;29;20232;-68
2022/04/01 10:27:48;;;;;;;2.10;1.92;;;6.50;99.90;;;;;;4904098;29;20224;-69
2022/04/01 10:30:18;;;;;;;5.50;3.60;;;6.50;99.90;;;;;;4890662;29;20252;-68
2022/04/01 10:32:46;;;;;;;4.80;2.28;;;6.50;99.90;;;;;;4897086;29;20290;-69
2022/04/01 10:35:23;;;;;;;1.98;1.98;;;6.40;99.90;;;;;;4907513;29;20285;-68
2022/04/01 10:37:54;;;;;;;2.63;2.42;;;6.30;99.90;;;;;;4886345;29;20219;-69
2022/04/01 10:40:21;;;;;;;1.70;1.60;;;6.30;99.90;;;;;;4877095;29;20322;-70
2022/04/01 10:42:49;;;;;;;2.75;2.20;;;6.40;99.90;;;;;;4898090;29;20233;-67
2022/04/01 10:45:26;;;;;;;1.95;1.80;;;6.50;99.90;;;;;;4898605;29;20211;-67
2022/04/01 10:53:41;;;;;;;2.03;1.90;;;6.40;99.90;;;;;;4886757;29;20214;-68
2022/04/01 10:56:33;;;;;;;2.67;1.88;;;6.30;99.90;;;;;;4881026;29;20208;-65
2022/04/01 10:59:06;;;;;;;1.58;1.58;;;6.40;99.90;;;;;;4891599;29;20207;-67
2022/04/01 11:01:35;;;;;;;1.95;1.85;;;6.40;99.90;;;;;;4879822;29;20557;-68
2022/04/01 11:04:03;;;;;;;1.95;1.80;;;6.60;99.90;;;;;;4896812;29;20215;-67
2022/04/01 11:06:30;;;;;;;5.85;1.65;;;6.50;99.90;;;;;;4900743;29;20261;-67
2022/04/01 11:08:57;;;;;;;1.52;1.52;;;6.60;99.90;;;;;;4887958;29;20578;-66
2022/04/01 11:11:24;;;;;;;2.00;1.90;;;6.60;99.90;;;;;;4885914;29;20214;-66
2022/04/01 11:14:04;;;;;;;1.45;1.25;;;6.60;99.50;;;;;;4901064;29;20275;-68
2022/04/01 11:19:26;;;;;;;2.25;2.08;;;6.60;98.90;;;;;;5073318;27;21360;-68
2022/04/01 11:21:52;;;;;;;1.90;1.80;;;6.70;98.90;;;;;;5053170;28;20209;-68
2022/04/01 11:24:30;;;;;;;1.70;1.60;;;6.60;98.90;;;;;;5052963;28;20620;-67
2022/04/01 11:27:05;;;;;;;1.60;1.60;;;6.50;98.70;;;;;;5049754;28;20615;-68
2022/04/01 11:29:32;;;;;;;1.15;1.15;;;6.60;99.30;;;;;;5060532;28;20225;-68
2022/04/01 11:32:04;;;;;;;2.42;1.50;;;6.60;98.80;;;;;;5056616;28;20205;-67
2022/04/01 11:34:32;;;;;;;2.35;2.20;;;6.60;98.80;;;;;;5059904;28;20205;-67
2022/04/01 11:37:01;;;;;;;2.55;2.38;;;6.70;98.60;;;;;;5065022;28;20201;-70
2022/04/01 11:39:28;;;;;;;1.92;1.80;;;6.70;98.50;;;;;;5061712;28;20270;-67
2022/04/01 11:41:55;;;;;;;1.42;1.35;;;6.70;97.90;;;;;;5052053;28;20213;-69
2022/04/01 11:44:23;;;;;;;1.38;1.38;;;6.80;97.40;;;;;;5063633;28;20216;-68
2022/04/01 11:46:54;;;;;;;2.45;2.00;;;6.90;97.20;;;;;;5061922;28;20717;-69
2022/04/01 11:49:26;;;;;;;3.80;1.15;;;6.90;96.80;;;;;;5063336;28;20279;-68
2022/04/01 11:51:53;;;;;;;4.47;1.50;;;6.90;96.70;;;;;;5050931;28;20206;-70
2022/04/01 11:54:21;;;;;;;1.75;1.65;;;7.00;96.60;;;;;;5052033;28;20199;-69
2022/04/01 11:56:51;;;;;;;1.25;1.08;;;6.90;95.90;;;;;;5063059;28;20288;-68
2022/04/01 11:59:18;;;;;;;1.50;1.40;;;6.90;96.30;;;;;;5059144;28;20237;-65
2022/04/01 12:01:58;;;;;;;1.20;1.20;;;7.00;96.30;;;;;;5057112;28;20582;-67
2022/04/01 12:04:35;;;;;;;10.75;1.50;;;7.20;96.20;;;;;;5056492;28;20220;-66
2022/04/01 12:09:57;;;;;;;1.85;1.40;;;7.00;95.90;;;;;;5058521;28;20656;-68
2022/04/01 12:12:24;;;;;;;2.30;2.05;;;7.10;95.70;;;;;;5065521;28;20553;-68
2022/04/01 12:14:52;;;;;;;2.53;1.55;;;7.20;96.20;;;;;;5061721;28;20258;-68
2022/04/01 12:17:20;;;;;;;1.80;1.70;;;7.20;95.90;;;;;;5060092;28;20255;-68
2022/04/01 12:19:48;;;;;;;1.50;1.40;;;7.10;95.50;;;;;;5059836;28;20686;-66
2022/04/01 12:22:16;;;;;;;1.48;1.48;;;7.10;95.20;;;;;;5061087;28;20205;-65
2022/04/01 12:24:42;;;;;;;1.50;1.45;;;7.10;95.40;;;;;;5063882;28;20197;-68
2022/04/01 12:27:10;;;;;;;2.25;1.48;;;7.20;95.30;;;;;;5053240;28;20267;-68
2022/04/01 12:29:37;;;;;;;1.13;1.13;;;7.50;95.50;;;;;;5048786;28;20912;-68
2022/04/01 12:32:07;;;;;;;1.83;1.73;;;7.60;94.60;;;;;;5048336;28;20206;-68
2022/04/01 12:34:34;;;;;;;4.32;1.63;;;7.50;94.00;;;;;;5042547;28;20210;-68
2022/04/01 12:37:02;;;;;;;1.05;1.05;;;7.60;94.20;;;;;;5046810;28;20224;-67
2022/04/01 12:39:31;;;;;;;1.20;1.20;;;7.50;94.10;;;;;;5045903;28;20229;-68
2022/04/01 12:42:00;;;;;;;1.35;1.35;;;7.40;94.40;;;;;;5041697;28;20263;-68
2022/04/01 12:44:28;;;;;;;1.20;1.20;;;7.20;94.30;;;;;;5045940;28;20236;-69
2022/04/01 12:46:58;;;;;;;2.05;1.95;;;7.10;94.20;;;;;;5042229;28;20232;-66
2022/04/01 12:49:26;;;;;;;1.25;1.25;;;7.00;94.70;;;;;;5039614;28;20590;-67
2022/04/01 12:51:57;;;;;;;1.00;1.00;;;7.10;94.70;;;;;;5043334;28;20213;-68
2022/04/01 12:54:27;;;;;;;0.90;0.90;;;7.10;94.50;;;;;;5039512;28;20275;-66
2022/04/01 12:56:56;;;;;;;1.23;1.10;;;7.10;93.90;;;;;;5041015;28;20209;-67
2022/04/01 12:59:24;;;;;;;0.90;0.90;;;7.10;93.80;;;;;;5045365;28;20283;-67
2022/04/01 13:01:59;;;;;;;1.27;1.10;;;7.10;93.30;;;;;;5045087;28;20202;-67
2022/04/01 13:04:26;;;;;;;1.85;1.30;;;7.10;93.00;;;;;;5045505;28;20734;-66
2022/04/01 13:07:06;;;;;;;1.63;1.52;;;7.20;93.50;;;;;;5043555;28;20251;-67
2022/04/01 13:09:33;;;;;;;2.28;1.80;;;7.00;94.70;;;;;;5044504;28;20724;-67
2022/04/01 13:12:04;;;;;;;1.35;1.35;;;6.80;95.10;;;;;;5052195;28;20243;-67
2022/04/01 13:14:34;;;;;;;1.10;1.00;;;6.90;95.80;;;;;;5047289;28;20557;-66
2022/04/01 13:17:09;;;;;;;3.00;1.63;;;6.70;95.70;;;;;;5043041;28;20206;-67
2022/04/01 13:19:37;;;;;;;3.50;1.27;;;6.70;96.30;;;;;;5041723;28;20269;-67
2022/04/01 13:22:06;;;;;;;1.30;1.30;;;6.70;96.50;;;;;;5033150;28;20195;-66
2022/04/01 13:24:36;;;;;;;3.00;1.50;;;6.80;96.20;;;;;;5039597;28;20228;-65
2022/04/01 13:27:05;;;;;;;2.20;1.65;;;6.90;95.80;;;;;;5046441;28;20616;-67
2022/04/01 13:29:32;;;;;;;1.52;1.52;;;7.00;95.80;;;;;;5047248;28;20639;-65
2022/04/01 13:31:58;;;;;;;6.53;1.80;;;7.10;95.60;;;;;;5039399;28;20239;-68
2022/04/01 13:34:25;;;;;;;1.92;1.55;;;7.10;95.60;;;;;;5038458;28;20207;-67
2022/04/01 13:36:51;;;;;;;2.00;1.30;;;7.10;95.40;;;;;;5041494;28;20198;-67
2022/04/01 13:39:19;;;;;;;1.90;1.50;;;7.00;95.60;;;;;;5036519;28;20371;-67
2022/04/01 13:41:46;;;;;;;2.63;1.98;;;7.00;96.10;;;;;;5049781;28;20251;-68
2022/04/01 13:44:14;;;;;;;2.05;1.30;;;7.10;95.20;;;;;;5050864;28;20266;-66
2022/04/01 13:46:41;;;;;;;0.80;0.80;;;6.90;95.50;;;;;;5042776;28;20214;-67
2022/04/01 13:49:08;;;;;;;1.30;1.30;;;6.90;95.10;;;;;;5036971;28;20202;-67
2022/04/01 13:51:35;;;;;;;3.20;1.70;;;6.80;95.20;;;;;;5047084;28;20210;-67
2022/04/01 13:54:02;;;;;;;1.35;1.30;;;6.80;95.30;;;;;;5046913;28;21147;-68
2022/04/01 13:56:30;;;;;;;1.25;0.90;;;6.80;95.50;;;;;;5051037;28;20209;-67
2022/04/01 13:58:57;;;;;;;1.13;1.13;;;6.90;95.20;;;;;;5049451;28;20229;-69
2022/04/01 14:01:25;;;;;;;2.95;1.60;;;6.90;96.70;;;;;;5043930;28;20203;-67
2022/04/01 14:03:52;;;;;;;1.35;1.20;;;6.90;99.30;;;;;;5049468;28;20208;-66
2022/04/01 14:06:20;;;;;;;1.70;1.60;;;6.80;98.80;;;;;;5048744;28;20210;-67
2022/04/01 14:08:46;;;;;;;2.10;2.00;;;6.90;99.90;;;;;;5043186;28;20225;-66
2022/04/01 14:11:13;;;;;;;1.48;1.48;;;6.90;99.90;;;;;;5044437;28;20283;-66
2022/04/01 14:13:40;;;;;;;0.60;0.60;;;6.70;99.90;;;;;;5048710;28;20300;-68
2022/04/01 14:16:07;;;;;;;2.90;1.38;;;6.50;99.90;;;;;;5046667;28;20209;-67
2022/04/01 14:18:35;;;;;;;1.30;1.25;;;6.40;99.90;;;;;;5050307;28;20221;-66
2022/04/01 14:21:03;;;;;;;2.60;1.63;;;6.40;99.90;;;;;;5048674;28;20225;-68
2022/04/01 14:23:31;;;;;;;0.90;0.90;;;6.40;99.90;;;;;;5041383;28;20202;-67
2022/04/01 14:26:04;;;;;;;1.15;1.15;;;6.30;99.90;;;;;;5046046;28;20274;-67
2022/04/01 14:28:32;;;;;;;1.55;1.45;;;6.30;99.90;;;;;;5040401;28;20284;-68
2022/04/01 14:30:59;;;;;;;2.10;1.48;;;6.40;99.90;;;;;;5041575;28;20525;-69
2022/04/01 14:33:26;;;;;;;1.92;1.15;;;6.40;99.90;;;;;;5036348;28;20289;-67
2022/04/01 14:35:54;;;;;;;1.85;1.75;;;6.40;99.90;;;;;;5047021;28;20599;-67
2022/04/01 14:38:21;;;;;;;1.40;1.40;;;6.40;99.90;;;;;;5043891;28;20314;-68
2022/04/01 14:40:48;;;;;;;3.50;1.40;;;6.40;99.90;;;;;;5040318;28;20283;-67
2022/04/01 14:43:15;;;;;;;1.10;1.10;;;6.30;99.90;;;;;;5045451;28;20213;-67
2022/04/01 14:45:43;;;;;;;2.10;1.30;;;6.20;99.90;;;;;;5044926;28;20213;-67
2022/04/01 14:48:10;;;;;;;1.20;1.20;;;6.20;99.90;;;;;;5051586;28;20228;-67
2022/04/01 14:50:37;;;;;;;1.30;1.30;;;6.30;99.90;;;;;;5036798;28;20232;-67
2022/04/01 14:53:06;;;;;;;0.85;0.85;;;6.30;99.90;;;;;;5052496;28;20317;-70
2022/04/01 14:55:34;;;;;;;0.90;0.90;;;6.30;99.90;;;;;;5045262;28;20232;-67
2022/04/01 14:58:01;;;;;;;2.20;1.65;;;6.30;99.90;;;;;;5041936;28;20231;-68
2022/04/01 15:00:28;;;;;;;2.30;1.33;;;6.30;99.90;;;;;;5039499;28;20710;-68
2022/04/01 15:02:56;;;;;;;1.58;1.50;;;6.20;99.90;;;;;;5043777;28;20220;-68
2022/04/01 15:05:23;;;;;;;1.52;1.42;;;6.10;99.90;;;;;;5039308;28;20689;-68
2022/04/01 15:07:51;;;;;;;1.30;1.30;;;6.10;99.90;;;;;;5033596;28;20623;-67
2022/04/01 15:10:20;;;;;;;1.90;1.80;;;6.10;99.90;;;;;;5030100;28;20228;-68
2022/04/01 15:12:49;;;;;;;1.42;1.27;;;6.10;99.90;;;;;;5049462;28;20279;-68
2022/04/01 15:15:16;;;;;;;1.00;1.00;;;6.20;99.90;;;;;;5050102;28;20201;-67
2022/04/01 15:17:43;;;;;;;1.20;1.20;;;6.10;99.90;;;;;;5036257;28;20210;-68
2022/04/01 15:20:12;;;;;;;2.67;1.23;;;6.00;99.90;;;;;;5046391;28;20230;-67
2022/04/01 15:22:41;;;;;;;3.25;1.90;;;6.00;99.90;;;;;;5036386;28;20256;-68
2022/04/01 15:25:11;;;;;;;3.42;1.15;;;5.90;99.90;;;;;;5039151;28;20214;-68
2022/04/01 15:27:40;;;;;;;1.42;1.42;;;5.90;99.90;;;;;;5035769;28;20209;-67
2022/04/01 15:30:07;;;;;;;2.38;1.63;;;5.90;99.90;;;;;;5038240;28;20245;-67
2022/04/01 15:32:35;;;;;;;1.80;1.40;;;5.80;99.90;;;;;;5043553;28;20209;-68
2022/04/01 15:35:02;;;;;;;0.90;0.90;;;5.80;99.90;;;;;;5047409;28;20305;-66
2022/04/01 15:37:37;;;;;;;1.70;1.70;;;5.70;99.90;;;;;;5033964;28;20213;-66
2022/04/01 15:40:07;;;;;;;1.48;1.10;;;5.70;99.90;;;;;;5044798;28;20310;-67
2022/04/01 15:42:34;;;;;;;1.80;1.70;;;5.70;99.90;;;;;;5043865;28;20293;-66
2022/04/01 15:45:05;;;;;;;1.08;1.08;;;5.70;99.90;;;;;;5032870;28;20288;-67
2022/04/01 15:47:34;;;;;;;1.30;1.20;;;5.60;99.90;;;;;;5040278;28;20329;-65
2022/04/01 15:50:02;;;;;;;0.90;0.90;;;5.60;99.90;;;;;;5049172;28;20222;-66
2022/04/01 15:52:34;;;;;;;4.03;1.25;;;5.60;99.90;;;;;;5040805;28;20283;-66
2022/04/01 15:55:02;;;;;;;1.13;1.10;;;5.60;99.90;;;;;;5039454;28;20198;-67
2022/04/01 15:57:28;;;;;;;2.00;1.55;;;5.50;99.90;;;;;;5044559;28;20257;-66
2022/04/01 15:59:55;;;;;;;1.73;1.73;;;5.50;99.90;;;;;;5040567;28;20298;-66
2022/04/01 16:02:28;;;;;;;5.13;1.70;;;5.50;99.90;;;;;;5041601;28;20722;-67
2022/04/01 16:04:59;;;;;;;1.83;1.58;;;5.50;99.90;;;;;;5038351;28;20590;-67
2022/04/01 16:07:40;;;;;;;1.90;1.40;;;5.50;99.90;;;;;;5044796;28;20216;-67
2022/04/01 16:10:10;;;;;;;2.95;1.73;;;5.50;99.90;;;;;;5039914;28;20229;-65
2022/04/01 16:12:37;;;;;;;2.72;1.65;;;5.60;99.90;;;;;;5041713;28;20215;-67
2022/04/01 16:15:07;;;;;;;1.70;1.60;;;5.50;99.90;;;;;;5046214;28;20301;-67
2022/04/01 16:17:36;;;;;;;2.92;1.50;;;5.40;99.90;;;;;;5045111;28;20232;-67
2022/04/01 16:20:04;;;;;;;2.15;1.75;;;5.40;99.90;;;;;;5042714;28;20276;-67
2022/04/01 16:22:32;;;;;;;1.60;1.50;;;5.30;99.90;;;;;;5045103;28;20203;-67
2022/04/01 16:25:00;;;;;;;1.90;1.80;;;5.30;99.90;;;;;;5047377;28;20213;-66
2022/04/01 16:27:28;;;;;;;1.23;1.15;;;5.20;99.90;;;;;;5042851;28;20210;-68
2022/04/01 16:29:55;;;;;;;7.05;1.73;;;5.20;99.90;;;;;;5052944;28;20304;-66
2022/04/01 16:32:23;;;;;;;2.83;1.50;;;5.20;99.90;;;;;;5050078;28;20267;-67
2022/04/01 16:34:51;;;;;;;2.17;2.00;;;5.20;99.90;;;;;;5051595;28;20225;-66
2022/04/01 16:37:19;;;;;;;2.03;1.40;;;5.20;99.90;;;;;;5050257;28;20240;-67
2022/04/01 16:39:48;;;;;;;2.35;1.00;;;5.20;99.90;;;;;;5052606;28;20233;-67
2022/04/01 16:42:16;;;;;;;0.80;0.80;;;5.10;99.90;;;;;;5040081;28;20210;-67
2022/04/01 16:44:43;;;;;;;1.60;1.20;;;5.10;99.90;;;;;;5049092;28;20202;-66
2022/04/01 16:47:12;;;;;;;1.27;1.27;;;5.10;99.90;;;;;;5051214;28;20205;-67
2022/04/01 16:49:39;;;;;;;1.27;1.27;;;5.10;99.90;;;;;;5039346;28;20247;-66
2022/04/01 16:52:07;;;;;;;1.30;1.30;;;5.10;99.90;;;;;;5037985;28;20225;-66
2022/04/01 16:54:34;;;;;;;1.15;1.15;;;5.10;99.90;;;;;;5046110;28;20206;-67
2022/04/01 16:57:01;;;;;;;1.70;1.60;;;5.10;99.90;;;;;;5047498;28;20252;-67
2022/04/01 16:59:28;;;;;;;1.52;1.52;;;5.00;99.90;;;;;;5042104;28;20766;-68
2022/04/01 17:01:54;;;;;;;1.67;1.65;;;5.00;99.90;;;;;;5033884;28;20885;-67
2022/04/01 17:04:21;;;;;;;2.85;1.08;;;5.00;99.90;;;;;;5034336;28;20280;-68
2022/04/01 17:12:34;;;;;;;0.57;0.57;;;4.90;99.90;;;;;;5050962;28;20213;-67
2022/04/01 17:15:03;;;;;;;0.60;0.60;;;4.90;99.90;;;;;;5045001;28;20245;-66
2022/04/01 17:17:30;;;;;;;1.48;1.38;;;4.80;99.90;;;;;;5045060;28;20228;-67
2022/04/01 17:19:57;;;;;;;0.90;0.90;;;4.80;99.90;;;;;;5044407;28;20320;-67
2022/04/01 17:22:25;;;;;;;1.25;1.25;;;4.80;99.90;;;;;;5040283;28;20657;-67
2022/04/01 17:24:54;;;;;;;1.15;1.15;;;4.80;99.90;;;;;;5048484;28;20206;-67
2022/04/01 17:27:22;;;;;;;1.30;1.20;;;4.80;99.90;;;;;;5037216;28;20579;-68